Guadalupe Pass, Texas
Current Conditions -  °F | °C
As of 1:51 AM on Monday 24 Nov 2014 (Local Time) from KGDP Reporting Station
Clear Clear  
Wind Chill: 29°   Ceiling: Unl
Heat Index: 36°   Visibility: 10mi
Dew Point: 19°   Wind: 9mph
Humidity: 50%   Direction: 220°SW
Pressure: 30.07"   Gusts: NA
Location:  31.83°N, 104.8°W
Report Text: KGDP 240751Z AUTO 22008KT 10SM CLR 02/M07 A3007 RMK AO2 SLP154 T00221072
Loading
Personal Weather Stations






























Interactive Weather Map New forecast layout! Learn more

10-Day Weather Forecast

Advertisements
Track Severe Weather on mobile